Time;durP1;ratioP1;P1;durP2;ratioP2;P2;SDS_P1;SDS_P2;PMS_P1;PMS_P2;Temp;Humidity;BMP_temperature;BMP_pressure;BME280_temperature;BME280_humidity;BME280_pressure;Samples;Min_cycle;Max_cycle;Signal;HPM_P1;HPM_P2
2023/12/26 00:00:46;;;;;;;7.20;2.77;;;27.40;99.90;;;;;;4992093;28;20229;-69
2023/12/26 00:03:13;;;;;;;9.97;3.03;;;28.50;99.90;;;;;;4989389;28;20265;-69
2023/12/26 00:05:40;;;;;;;10.00;3.05;;;29.70;99.90;;;;;;4992614;28;20190;-69
2023/12/26 00:08:08;;;;;;;10.43;2.55;;;30.80;99.90;;;;;;4992679;28;20276;-69
2023/12/26 00:13:57;;;;;;;9.00;2.50;;;31.90;99.90;;;;;;4992138;28;20178;-70
2023/12/26 00:16:25;;;;;;;7.35;2.15;;;31.50;99.90;;;;;;4992704;28;20231;-69
2023/12/26 00:18:52;;;;;;;6.63;2.03;;;30.70;99.90;;;;;;4992131;28;20620;-70
2023/12/26 00:21:20;;;;;;;8.77;2.35;;;30.30;99.90;;;;;;4992728;28;20747;-69
2023/12/26 00:23:47;;;;;;;11.45;2.33;;;30.10;99.90;;;;;;4993044;28;20207;-70
2023/12/26 00:26:14;;;;;;;7.95;2.72;;;29.40;99.90;;;;;;4993064;28;20194;-70
2023/12/26 00:28:41;;;;;;;9.68;2.40;;;29.70;99.90;;;;;;4992505;28;20214;-69
2023/12/26 00:31:09;;;;;;;11.18;2.72;;;29.40;99.90;;;;;;4992120;28;20174;-70
2023/12/26 00:33:36;;;;;;;9.07;2.38;;;29.30;99.90;;;;;;4971443;28;20190;-71
2023/12/26 00:36:03;;;;;;;6.70;2.50;;;30.50;99.90;;;;;;4973886;28;20189;-70
2023/12/26 00:38:31;;;;;;;9.07;2.92;;;30.90;99.90;;;;;;4992100;28;20632;-69
2023/12/26 00:40:58;;;;;;;7.57;2.10;;;30.80;99.90;;;;;;4991719;28;20182;-71
2023/12/26 00:43:25;;;;;;;7.32;2.25;;;30.60;99.90;;;;;;4992200;28;20650;-69
2023/12/26 00:45:53;;;;;;;6.90;2.42;;;31.30;99.90;;;;;;4992273;28;20189;-70
2023/12/26 00:48:20;;;;;;;8.98;3.45;;;31.80;99.90;;;;;;4991577;28;20675;-69
2023/12/26 00:50:47;;;;;;;10.45;3.25;;;32.00;99.90;;;;;;4992095;28;20626;-69
2023/12/26 00:53:15;;;;;;;8.95;2.70;;;32.30;99.90;;;;;;4992318;28;20266;-70
2023/12/26 00:55:42;;;;;;;11.77;4.18;;;32.30;99.90;;;;;;4991578;28;20179;-69
2023/12/26 00:58:09;;;;;;;9.85;2.90;;;31.50;99.90;;;;;;4992070;28;20683;-68
2023/12/26 01:00:37;;;;;;;6.55;1.92;;;31.00;99.90;;;;;;4974240;28;20193;-72
2023/12/26 01:03:04;;;;;;;7.70;2.30;;;31.10;99.90;;;;;;4991816;28;20183;-69
2023/12/26 01:05:31;;;;;;;8.07;2.40;;;31.70;99.90;;;;;;4992428;28;20185;-70
2023/12/26 01:07:59;;;;;;;13.65;2.47;;;32.50;99.90;;;;;;4992107;28;20241;-69
2023/12/26 01:10:27;;;;;;;11.38;2.50;;;33.20;99.90;;;;;;4991678;28;20213;-70
2023/12/26 01:12:54;;;;;;;8.00;2.70;;;33.50;99.90;;;;;;4992025;28;20218;-70
2023/12/26 01:15:22;;;;;;;5.30;1.95;;;33.20;99.90;;;;;;4992079;28;20267;-71
2023/12/26 01:17:50;;;;;;;9.10;2.90;;;32.10;99.90;;;;;;4991622;28;20221;-70
2023/12/26 01:20:18;;;;;;;9.15;2.38;;;31.30;99.90;;;;;;4991694;28;20237;-72
2023/12/26 01:22:46;;;;;;;10.35;2.40;;;32.00;99.90;;;;;;4991635;28;20277;-71
2023/12/26 01:25:13;;;;;;;9.25;2.90;;;32.90;99.90;;;;;;4995415;28;20195;-70
2023/12/26 01:27:42;;;;;;;11.70;2.95;;;33.70;99.90;;;;;;4995495;28;20743;-73
2023/12/26 01:30:09;;;;;;;8.57;2.40;;;33.40;99.90;;;;;;4995283;28;20277;-68
2023/12/26 01:32:37;;;;;;;6.22;2.53;;;33.20;99.90;;;;;;4994570;28;20187;-69
2023/12/26 01:35:04;;;;;;;9.25;2.47;;;32.60;99.90;;;;;;4995421;28;20644;-71
2023/12/26 01:37:32;;;;;;;10.38;2.72;;;32.70;99.90;;;;;;4995285;28;20182;-72
2023/12/26 01:39:59;;;;;;;8.25;1.85;;;33.00;99.90;;;;;;4994741;28;20574;-70
2023/12/26 01:42:27;;;;;;;7.55;2.95;;;32.90;99.90;;;;;;4995024;28;20171;-72
2023/12/26 01:44:54;;;;;;;6.65;2.33;;;33.00;99.90;;;;;;4995023;28;20273;-71
2023/12/26 01:47:21;;;;;;;8.90;2.88;;;33.40;99.90;;;;;;4994689;28;20210;-71
2023/12/26 01:49:49;;;;;;;10.60;2.63;;;32.90;99.90;;;;;;4995172;28;20640;-71
2023/12/26 01:52:19;;;;;;;7.88;2.03;;;33.40;99.90;;;;;;4994967;28;20175;-70
2023/12/26 01:54:47;;;;;;;7.05;2.58;;;33.50;99.90;;;;;;4994818;28;20193;-72
2023/12/26 01:57:15;;;;;;;9.43;2.53;;;33.80;99.90;;;;;;4995022;28;20249;-70
2023/12/26 01:59:43;;;;;;;9.32;2.30;;;33.90;99.90;;;;;;4995142;28;20178;-73
2023/12/26 02:02:11;;;;;;;5.38;1.90;;;34.20;99.90;;;;;;4977044;28;20546;-70
2023/12/26 02:04:39;;;;;;;10.48;2.92;;;34.50;99.90;;;;;;4994347;28;20584;-70
2023/12/26 02:07:08;;;;;;;9.40;2.70;;;33.90;99.90;;;;;;4995021;28;20202;-71
2023/12/26 02:09:36;;;;;;;8.48;2.70;;;33.20;99.90;;;;;;4994611;28;20183;-72
2023/12/26 02:12:04;;;;;;;6.55;2.53;;;32.00;99.90;;;;;;4995445;28;20181;-71
2023/12/26 02:14:32;;;;;;;8.00;2.72;;;31.50;99.90;;;;;;4994524;28;20187;-72
2023/12/26 02:17:01;;;;;;;7.38;2.55;;;31.50;99.90;;;;;;4994395;28;20636;-71
2023/12/26 02:19:29;;;;;;;8.43;3.13;;;31.20;99.90;;;;;;4994613;28;20182;-70
2023/12/26 02:21:56;;;;;;;7.53;2.42;;;31.20;99.90;;;;;;4994734;28;20190;-69
2023/12/26 02:24:23;;;;;;;9.95;2.45;;;32.10;99.90;;;;;;4993675;28;20206;-73
2023/12/26 02:26:55;;;;;;;10.15;2.83;;;33.00;99.90;;;;;;4994313;28;20745;-71
2023/12/26 02:29:24;;;;;;;8.65;3.08;;;33.40;99.90;;;;;;4994469;28;20191;-71
2023/12/26 02:31:55;;;;;;;7.35;2.60;;;33.30;99.90;;;;;;4994034;28;20198;-68
2023/12/26 02:34:23;;;;;;;10.23;2.80;;;33.80;99.90;;;;;;4993269;28;20197;-73
2023/12/26 02:36:50;;;;;;;6.28;2.30;;;34.20;99.90;;;;;;4994066;28;20591;-72
2023/12/26 02:39:18;;;;;;;6.82;2.88;;;34.80;99.90;;;;;;4993342;28;20191;-70
2023/12/26 02:41:45;;;;;;;4.90;2.38;;;34.70;99.90;;;;;;4994294;28;20714;-69
2023/12/26 02:44:12;;;;;;;14.73;3.35;;;34.80;99.90;;;;;;4993937;28;20182;-73
2023/12/26 02:46:40;;;;;;;6.00;2.97;;;34.10;99.90;;;;;;4993669;28;20624;-69
2023/12/26 02:49:07;;;;;;;4.70;2.60;;;32.80;99.90;;;;;;4993622;28;20191;-70
2023/12/26 02:51:35;;;;;;;7.22;2.78;;;32.30;99.90;;;;;;4994164;28;20261;-69
2023/12/26 02:54:02;;;;;;;8.95;2.90;;;31.90;99.90;;;;;;4993312;28;20179;-73
2023/12/26 02:56:30;;;;;;;9.88;3.00;;;31.80;99.90;;;;;;4993666;28;20269;-72
2023/12/26 02:58:57;;;;;;;8.27;2.95;;;31.60;99.90;;;;;;4993890;28;20182;-71
2023/12/26 03:01:25;;;;;;;6.13;3.10;;;31.40;99.90;;;;;;4993416;28;20186;-73
2023/12/26 03:03:52;;;;;;;9.10;2.95;;;31.20;99.90;;;;;;4993877;28;20234;-70
2023/12/26 03:06:19;;;;;;;9.15;3.60;;;30.90;99.90;;;;;;4992936;28;20201;-71
2023/12/26 03:08:47;;;;;;;8.43;3.10;;;30.80;99.90;;;;;;4992790;28;20222;-70
2023/12/26 03:11:14;;;;;;;9.23;2.63;;;30.70;99.90;;;;;;4986549;28;20276;-72
2023/12/26 03:13:41;;;;;;;8.13;3.13;;;30.70;99.90;;;;;;4993393;28;20186;-72
2023/12/26 03:16:08;;;;;;;12.02;4.10;;;30.60;99.90;;;;;;4975574;28;20550;-72
2023/12/26 03:18:36;;;;;;;7.47;3.15;;;30.40;99.90;;;;;;4992776;28;20186;-72
2023/12/26 03:21:03;;;;;;;8.30;3.20;;;30.30;99.90;;;;;;4993578;28;20270;-72
2023/12/26 03:23:30;;;;;;;10.70;3.17;;;30.10;99.90;;;;;;4993165;28;20600;-72
2023/12/26 03:25:58;;;;;;;9.13;3.55;;;30.00;99.90;;;;;;4993368;28;20175;-72
2023/12/26 03:28:25;;;;;;;19.37;4.20;;;29.90;99.90;;;;;;4992845;28;20276;-72
2023/12/26 03:30:52;;;;;;;17.67;3.70;;;29.40;99.90;;;;;;4992446;28;20256;-71
2023/12/26 03:33:20;;;;;;;24.30;3.83;;;29.10;99.90;;;;;;4993184;28;20240;-73
2023/12/26 03:35:47;;;;;;;18.43;4.00;;;28.80;99.90;;;;;;4993112;28;20265;-70
2023/12/26 03:38:15;;;;;;;17.50;4.37;;;28.50;99.90;;;;;;4993078;28;20190;-71
2023/12/26 03:40:43;;;;;;;17.37;4.50;;;28.40;99.90;;;;;;4994108;28;20182;-70
2023/12/26 03:43:10;;;;;;;16.20;3.67;;;28.30;99.90;;;;;;4994111;28;20182;-70
2023/12/26 03:45:37;;;;;;;20.67;5.20;;;28.20;99.90;;;;;;4971130;28;20183;-73
2023/12/26 03:48:05;;;;;;;17.63;4.70;;;28.10;99.90;;;;;;4973785;28;20226;-72
2023/12/26 03:50:32;;;;;;;18.40;4.77;;;28.20;99.90;;;;;;4992249;28;20239;-73
2023/12/26 03:53:00;;;;;;;20.37;4.33;;;28.20;99.90;;;;;;4974235;28;20175;-71
2023/12/26 03:55:27;;;;;;;16.30;4.47;;;28.20;99.90;;;;;;4991592;28;20183;-72
2023/12/26 03:57:54;;;;;;;18.63;4.30;;;28.20;99.90;;;;;;4991946;28;20218;-71
2023/12/26 04:00:22;;;;;;;17.53;4.80;;;28.20;99.90;;;;;;4991953;28;20190;-72
2023/12/26 04:02:49;;;;;;;11.03;3.43;;;28.30;99.90;;;;;;4992048;28;20241;-73
2023/12/26 04:05:17;;;;;;;14.00;3.77;;;28.20;99.90;;;;;;4980329;28;20551;-71
2023/12/26 04:07:44;;;;;;;12.23;3.30;;;28.30;99.90;;;;;;4991986;28;20211;-71
2023/12/26 04:10:11;;;;;;;16.13;3.80;;;28.30;99.90;;;;;;4992647;28;20171;-70
2023/12/26 04:12:38;;;;;;;16.17;3.90;;;28.40;99.90;;;;;;4992704;28;20269;-73
2023/12/26 04:15:06;;;;;;;19.17;3.97;;;28.30;99.90;;;;;;4992045;28;20244;-71
2023/12/26 04:17:34;;;;;;;12.63;2.90;;;27.90;99.90;;;;;;4992311;28;20249;-72
2023/12/26 04:20:01;;;;;;;21.40;3.67;;;27.90;99.90;;;;;;4992701;28;20175;-72
2023/12/26 04:22:29;;;;;;;19.13;3.83;;;28.00;99.90;;;;;;4992096;28;20245;-71
2023/12/26 04:24:56;;;;;;;15.93;3.93;;;28.10;99.90;;;;;;4992692;28;20624;-71
2023/12/26 04:27:23;;;;;;;17.47;3.67;;;28.10;99.90;;;;;;4992432;28;20202;-71
2023/12/26 04:29:51;;;;;;;13.30;2.50;;;28.20;99.90;;;;;;4991473;28;20563;-71
2023/12/26 04:32:18;;;;;;;18.27;3.63;;;28.30;99.90;;;;;;4993189;28;20573;-71
2023/12/26 04:34:46;;;;;;;19.43;3.90;;;28.00;99.90;;;;;;4974952;28;20214;-70
2023/12/26 04:37:13;;;;;;;10.70;3.67;;;27.90;99.90;;;;;;4991800;28;20268;-70
2023/12/26 04:39:40;;;;;;;16.43;3.33;;;28.00;99.90;;;;;;4992219;28;20187;-73
2023/12/26 04:42:08;;;;;;;17.07;4.03;;;27.90;99.90;;;;;;4992079;28;20178;-71
2023/12/26 04:44:35;;;;;;;19.20;4.70;;;27.70;99.90;;;;;;4991954;28;20182;-71
2023/12/26 04:47:03;;;;;;;11.73;3.53;;;27.80;99.90;;;;;;4992069;28;20235;-71
2023/12/26 04:49:30;;;;;;;12.40;3.33;;;27.80;99.90;;;;;;4992313;28;20179;-70
2023/12/26 04:55:19;;;;;;;15.33;3.70;;;27.90;99.90;;;;;;4991421;28;20190;-71
2023/12/26 04:57:47;;;;;;;13.17;3.70;;;27.70;99.90;;;;;;4991900;28;20319;-71
2023/12/26 05:00:14;;;;;;;17.73;3.60;;;27.40;99.90;;;;;;4995545;28;20178;-73
2023/12/26 05:02:42;;;;;;;15.67;4.07;;;27.20;99.90;;;;;;4995754;28;20613;-72
2023/12/26 05:05:09;;;;;;;22.13;3.83;;;27.00;99.90;;;;;;4995839;28;20725;-71
2023/12/26 05:07:36;;;;;;;10.87;3.33;;;26.80;99.90;;;;;;4995272;28;20214;-71
2023/12/26 05:10:04;;;;;;;11.30;3.30;;;26.60;99.90;;;;;;4997492;28;20245;-72
2023/12/26 05:12:31;;;;;;;11.37;3.27;;;26.40;99.90;;;;;;4979360;28;20186;-71
2023/12/26 05:14:58;;;;;;;12.97;3.17;;;26.30;99.90;;;;;;4996192;28;20262;-71
2023/12/26 05:17:26;;;;;;;13.17;3.57;;;26.30;99.90;;;;;;4996129;28;20233;-73
2023/12/26 05:19:53;;;;;;;13.27;3.33;;;26.30;99.90;;;;;;4995537;28;20632;-71
2023/12/26 05:22:20;;;;;;;13.57;3.30;;;26.40;99.90;;;;;;4994955;28;20273;-71
2023/12/26 05:24:48;;;;;;;12.53;3.40;;;26.70;99.90;;;;;;4995423;28;20181;-73
2023/12/26 05:27:16;;;;;;;10.33;3.40;;;26.80;99.90;;;;;;4995475;28;20214;-71
2023/12/26 05:29:46;;;;;;;10.30;3.27;;;27.00;99.90;;;;;;4994866;28;20653;-72
2023/12/26 05:32:13;;;;;;;10.87;3.37;;;27.60;99.90;;;;;;4995590;28;20225;-72
2023/12/26 05:34:45;;;;;;;9.63;3.00;;;28.30;99.90;;;;;;4995108;28;20166;-69
2023/12/26 05:37:12;;;;;;;15.10;3.93;;;28.70;99.90;;;;;;4994546;28;20282;-72
2023/12/26 05:39:42;;;;;;;18.40;3.80;;;28.60;99.90;;;;;;4995123;28;20179;-72
2023/12/26 05:42:09;;;;;;;14.30;3.00;;;28.60;99.90;;;;;;4995308;28;20186;-73
2023/12/26 05:44:37;;;;;;;9.40;3.33;;;28.10;99.90;;;;;;4994583;28;20632;-71
2023/12/26 05:47:05;;;;;;;11.93;3.40;;;27.90;99.90;;;;;;4994743;28;20211;-71
2023/12/26 05:49:32;;;;;;;18.87;4.77;;;27.80;99.90;;;;;;4994797;28;20174;-73
2023/12/26 05:52:00;;;;;;;13.93;4.17;;;27.90;99.90;;;;;;4994319;28;20528;-72
2023/12/26 05:54:27;;;;;;;17.37;3.83;;;28.20;99.90;;;;;;4995447;28;20193;-73
2023/12/26 05:56:54;;;;;;;9.60;2.87;;;28.60;99.90;;;;;;4995996;28;20219;-73
2023/12/26 05:59:22;;;;;;;14.37;4.00;;;28.70;99.90;;;;;;4996359;28;20687;-72
2023/12/26 06:01:49;;;;;;;14.80;3.13;;;29.00;99.90;;;;;;4995728;28;20222;-72
2023/12/26 06:04:16;;;;;;;11.77;3.07;;;29.10;99.90;;;;;;4995881;28;20187;-72
2023/12/26 06:06:44;;;;;;;6.47;2.33;;;28.70;99.90;;;;;;4995993;28;20174;-73
2023/12/26 06:09:11;;;;;;;9.53;2.37;;;28.30;99.90;;;;;;4995617;28;20260;-73
2023/12/26 06:11:38;;;;;;;7.93;3.03;;;27.90;99.90;;;;;;4995908;28;20523;-71
2023/12/26 06:14:07;;;;;;;9.77;2.43;;;27.40;99.90;;;;;;4995993;28;20183;-72
2023/12/26 06:16:34;;;;;;;7.23;2.33;;;27.10;99.90;;;;;;4995912;28;20258;-71
2023/12/26 06:19:01;;;;;;;6.93;2.20;;;27.00;99.90;;;;;;4995847;28;20302;-71
2023/12/26 06:21:29;;;;;;;10.40;2.37;;;26.80;99.90;;;;;;4995609;28;20182;-71
2023/12/26 06:23:56;;;;;;;4.57;2.00;;;26.60;99.90;;;;;;4995847;28;20193;-71
2023/12/26 06:26:23;;;;;;;7.33;2.30;;;26.60;99.90;;;;;;4995504;28;20492;-71
2023/12/26 06:28:51;;;;;;;3.70;1.97;;;26.40;99.90;;;;;;4995492;28;20209;-69
2023/12/26 06:31:18;;;;;;;5.47;2.27;;;26.30;99.90;;;;;;4995598;28;20270;-69
2023/12/26 06:33:46;;;;;;;8.60;1.97;;;26.40;99.90;;;;;;4995192;28;20561;-71
2023/12/26 06:36:13;;;;;;;6.30;2.53;;;26.30;99.90;;;;;;4977986;28;20229;-71
2023/12/26 06:38:40;;;;;;;7.40;2.30;;;26.30;99.90;;;;;;4995589;28;20202;-71
2023/12/26 06:41:09;;;;;;;8.20;2.37;;;26.30;99.90;;;;;;4995486;28;20185;-70
2023/12/26 06:43:37;;;;;;;3.73;1.80;;;26.30;99.90;;;;;;4995408;28;20206;-70
2023/12/26 06:46:05;;;;;;;6.30;1.80;;;26.30;99.90;;;;;;4977741;28;20187;-69
2023/12/26 06:48:32;;;;;;;5.73;1.83;;;26.30;99.90;;;;;;4994965;28;20281;-70
2023/12/26 06:51:03;;;;;;;6.43;1.90;;;26.30;99.90;;;;;;4995039;28;20526;-69
2023/12/26 06:53:30;;;;;;;5.40;2.27;;;26.30;99.90;;;;;;4995155;28;20692;-70
2023/12/26 06:55:58;;;;;;;7.60;2.20;;;26.30;99.90;;;;;;4995201;28;20306;-70
2023/12/26 06:58:25;;;;;;;7.03;2.40;;;26.40;99.90;;;;;;4995057;28;20273;-70
2023/12/26 07:00:52;;;;;;;4.73;2.10;;;26.40;99.90;;;;;;4971722;28;20191;-72
2023/12/26 07:03:20;;;;;;;4.60;2.30;;;26.40;99.90;;;;;;4993321;28;20195;-70
2023/12/26 07:05:47;;;;;;;8.37;1.90;;;26.30;99.90;;;;;;4993754;28;20338;-71
2023/12/26 07:08:14;;;;;;;6.97;2.13;;;26.20;99.90;;;;;;4993022;28;20214;-71
2023/12/26 07:10:42;;;;;;;3.87;2.07;;;26.20;99.90;;;;;;4993240;28;20660;-70
2023/12/26 07:13:09;;;;;;;4.03;1.90;;;26.20;99.90;;;;;;4993161;28;20190;-71
2023/12/26 07:15:36;;;;;;;4.83;2.47;;;26.10;99.90;;;;;;4992771;28;20179;-72
2023/12/26 07:18:04;;;;;;;6.50;2.20;;;26.10;99.90;;;;;;4993633;28;20541;-70
2023/12/26 07:20:31;;;;;;;5.33;2.23;;;26.10;99.90;;;;;;4992681;28;20193;-71
2023/12/26 07:22:59;;;;;;;6.90;2.13;;;26.10;99.90;;;;;;4975014;28;20183;-72
2023/12/26 07:25:27;;;;;;;7.80;2.40;;;26.10;99.90;;;;;;4993047;28;20550;-71
2023/12/26 07:27:54;;;;;;;3.80;1.73;;;26.20;99.90;;;;;;4992750;28;20226;-72
2023/12/26 07:30:22;;;;;;;5.03;2.00;;;26.20;99.90;;;;;;4993038;28;20620;-71
2023/12/26 07:32:49;;;;;;;5.47;2.10;;;26.30;99.90;;;;;;4993049;28;20570;-70
2023/12/26 07:35:16;;;;;;;6.50;2.17;;;26.20;99.90;;;;;;4993099;28;20189;-72
2023/12/26 07:37:44;;;;;;;5.27;2.60;;;26.40;99.90;;;;;;4992309;28;20192;-71
2023/12/26 07:40:12;;;;;;;7.70;3.33;;;26.60;99.90;;;;;;4992977;28;20170;-71
2023/12/26 07:42:39;;;;;;;7.80;2.20;;;26.80;99.90;;;;;;4992181;28;20583;-72
2023/12/26 07:45:07;;;;;;;6.73;2.27;;;27.00;99.90;;;;;;4992618;28;20273;-72
2023/12/26 07:47:34;;;;;;;4.47;2.20;;;27.10;99.90;;;;;;4992711;28;20206;-71
2023/12/26 07:50:02;;;;;;;6.33;2.03;;;27.20;99.90;;;;;;4992825;28;20194;-73
2023/12/26 07:52:29;;;;;;;5.80;2.10;;;27.30;99.90;;;;;;4991842;28;20194;-72
2023/12/26 07:54:57;;;;;;;4.93;1.80;;;27.40;99.90;;;;;;4992936;28;20218;-71
2023/12/26 07:57:24;;;;;;;6.83;2.37;;;27.30;99.90;;;;;;4992474;28;20221;-75
2023/12/26 07:59:51;;;;;;;7.63;1.63;;;27.20;99.90;;;;;;4992314;28;20261;-72
2023/12/26 08:02:19;;;;;;;6.70;2.30;;;27.10;99.90;;;;;;4992711;28;20195;-71
2023/12/26 08:04:46;;;;;;;5.60;2.20;;;27.10;99.90;;;;;;4992874;28;20183;-69
2023/12/26 08:07:14;;;;;;;7.07;2.43;;;27.10;99.90;;;;;;4974003;28;20312;-73
2023/12/26 08:09:41;;;;;;;5.50;2.27;;;27.00;99.90;;;;;;4993062;28;20175;-72
2023/12/26 08:12:08;;;;;;;4.73;2.10;;;26.90;99.90;;;;;;4992650;28;20179;-71
2023/12/26 08:14:36;;;;;;;6.40;2.10;;;26.70;99.90;;;;;;4991718;28;20190;-70
2023/12/26 08:17:04;;;;;;;6.53;2.10;;;26.50;99.90;;;;;;4993623;28;20257;-71
2023/12/26 08:19:31;;;;;;;4.33;1.80;;;26.40;99.90;;;;;;4977185;28;20686;-72
2023/12/26 08:21:58;;;;;;;9.23;2.47;;;26.30;99.90;;;;;;4993952;28;20183;-71
2023/12/26 08:24:26;;;;;;;8.70;2.40;;;26.30;99.90;;;;;;4994008;28;20632;-72
2023/12/26 08:26:53;;;;;;;6.10;2.47;;;26.10;99.90;;;;;;4994278;28;20174;-71
2023/12/26 08:29:21;;;;;;;7.00;2.23;;;26.00;99.90;;;;;;4994530;28;20179;-72
2023/12/26 08:31:49;;;;;;;7.30;2.40;;;25.80;99.90;;;;;;4994820;28;20656;-73
2023/12/26 08:34:16;;;;;;;7.17;2.50;;;25.70;99.90;;;;;;4997773;28;20177;-72
2023/12/26 08:36:44;;;;;;;9.10;2.50;;;25.60;99.90;;;;;;4997570;28;20188;-72
2023/12/26 08:39:11;;;;;;;6.63;2.17;;;25.50;99.90;;;;;;4997861;28;20206;-72
2023/12/26 08:41:38;;;;;;;8.77;2.60;;;25.40;99.90;;;;;;4997634;28;20265;-73
2023/12/26 08:44:08;;;;;;;5.80;2.47;;;25.40;99.90;;;;;;4997933;28;20190;-72
2023/12/26 08:46:36;;;;;;;8.73;2.97;;;25.30;99.90;;;;;;4997592;28;20322;-72
2023/12/26 08:49:04;;;;;;;6.33;2.90;;;25.30;99.90;;;;;;4997458;28;20612;-72
2023/12/26 08:51:32;;;;;;;7.03;2.40;;;25.20;99.90;;;;;;4997224;28;20182;-71
2023/12/26 08:53:59;;;;;;;10.23;2.57;;;25.20;99.90;;;;;;4997585;28;20186;-72
2023/12/26 08:56:27;;;;;;;10.77;3.00;;;25.10;99.90;;;;;;4980264;28;20178;-72
2023/12/26 08:58:55;;;;;;;5.30;2.67;;;24.90;99.90;;;;;;4997220;28;20182;-71
2023/12/26 09:01:22;;;;;;;8.20;2.63;;;24.80;99.90;;;;;;4989890;28;20197;-72
2023/12/26 09:03:50;;;;;;;5.13;2.37;;;24.60;99.90;;;;;;4996865;28;20620;-72
2023/12/26 09:06:18;;;;;;;5.83;2.27;;;24.50;99.90;;;;;;4997656;28;20245;-71
2023/12/26 09:08:46;;;;;;;6.97;2.70;;;24.40;99.90;;;;;;4997388;28;20241;-72
2023/12/26 09:11:14;;;;;;;12.67;2.50;;;24.40;99.90;;;;;;4996960;28;20214;-72
2023/12/26 09:13:42;;;;;;;15.60;4.73;;;24.30;99.90;;;;;;4996666;28;20191;-71
2023/12/26 09:16:09;;;;;;;35.17;10.70;;;24.30;99.90;;;;;;4997116;28;20183;-72
2023/12/26 09:18:37;;;;;;;20.73;6.83;;;24.20;99.90;;;;;;4996706;28;20190;-71
2023/12/26 09:21:05;;;;;;;15.13;4.90;;;24.10;99.90;;;;;;4996729;28;20187;-72
2023/12/26 09:23:33;;;;;;;6.07;3.10;;;23.90;99.90;;;;;;4996422;28;20699;-71
2023/12/26 09:26:04;;;;;;;8.10;3.33;;;23.80;99.90;;;;;;4996312;28;20201;-71
2023/12/26 09:28:32;;;;;;;7.80;2.57;;;23.70;99.90;;;;;;4996760;28;20221;-71
2023/12/26 09:31:01;;;;;;;7.40;3.43;;;23.70;99.90;;;;;;4997036;28;20187;-70
2023/12/26 09:33:28;;;;;;;6.73;3.20;;;23.60;99.90;;;;;;4996713;28;20640;-71
2023/12/26 09:35:56;;;;;;;8.57;2.77;;;23.50;99.90;;;;;;4996822;28;20210;-71
2023/12/26 09:38:24;;;;;;;6.60;3.13;;;23.50;99.90;;;;;;4996475;28;20187;-70
2023/12/26 09:40:51;;;;;;;10.27;3.57;;;23.50;99.90;;;;;;4996750;28;20175;-71
2023/12/26 09:43:19;;;;;;;10.67;3.50;;;23.50;99.90;;;;;;4996481;28;20190;-70
2023/12/26 09:45:47;;;;;;;7.27;3.00;;;23.50;99.90;;;;;;4979287;28;20190;-70
2023/12/26 09:48:15;;;;;;;12.57;3.60;;;23.50;99.90;;;;;;4997034;28;20668;-70
2023/12/26 09:50:44;;;;;;;8.73;3.00;;;23.50;99.90;;;;;;4978744;28;20189;-71
2023/12/26 09:53:13;;;;;;;10.10;3.37;;;23.50;99.90;;;;;;4996327;28;20181;-70
2023/12/26 09:55:41;;;;;;;11.10;3.33;;;23.50;99.90;;;;;;4996312;28;20258;-71
2023/12/26 09:58:09;;;;;;;6.07;2.90;;;23.50;99.90;;;;;;4996070;28;20234;-71
2023/12/26 10:00:38;;;;;;;5.93;3.03;;;23.50;99.90;;;;;;4996242;28;20201;-71
2023/12/26 10:03:07;;;;;;;11.23;3.63;;;23.50;99.90;;;;;;4996004;28;20190;-71
2023/12/26 10:05:34;;;;;;;6.97;3.10;;;23.50;99.90;;;;;;4996414;28;20214;-69
2023/12/26 10:08:02;;;;;;;5.30;2.67;;;23.40;99.90;;;;;;4996076;28;20218;-72
2023/12/26 10:10:30;;;;;;;9.57;3.20;;;23.30;99.90;;;;;;4995751;28;20222;-71
2023/12/26 10:12:59;;;;;;;9.53;3.37;;;23.30;99.90;;;;;;4995550;28;20202;-70
2023/12/26 10:15:28;;;;;;;5.87;3.10;;;23.20;99.90;;;;;;4996042;28;20233;-72
2023/12/26 10:17:57;;;;;;;5.27;2.70;;;23.10;99.90;;;;;;4995824;28;20210;-71
2023/12/26 10:20:24;;;;;;;7.67;3.57;;;23.00;99.90;;;;;;4995478;28;20191;-71
2023/12/26 10:22:52;;;;;;;7.87;3.20;;;22.90;99.90;;;;;;4995862;28;20191;-72
2023/12/26 10:25:20;;;;;;;7.13;3.33;;;22.90;99.90;;;;;;4996067;28;20241;-71
2023/12/26 10:27:57;;;;;;;7.20;3.30;;;22.90;99.90;;;;;;4995624;28;20206;-72
2023/12/26 10:30:28;;;;;;;6.43;3.20;;;22.90;99.90;;;;;;4995665;28;20193;-71
2023/12/26 10:33:01;;;;;;;7.70;3.43;;;22.80;99.90;;;;;;4995114;28;20183;-72
2023/12/26 10:35:28;;;;;;;11.17;3.63;;;22.70;99.90;;;;;;4976343;28;20270;-72
2023/12/26 10:37:58;;;;;;;11.03;3.93;;;22.60;99.90;;;;;;4958953;28;20548;-72
2023/12/26 10:40:26;;;;;;;8.73;3.20;;;22.60;99.90;;;;;;4994314;28;20232;-71
2023/12/26 10:42:54;;;;;;;5.87;2.87;;;22.60;99.90;;;;;;4995280;28;20201;-71
2023/12/26 10:45:22;;;;;;;5.10;3.60;;;22.60;99.90;;;;;;4995376;28;20194;-71
2023/12/26 10:47:55;;;;;;;7.43;3.57;;;22.60;99.90;;;;;;4977882;28;20270;-72
2023/12/26 10:50:23;;;;;;;6.83;3.70;;;22.60;99.90;;;;;;4995064;28;20178;-72
2023/12/26 10:53:06;;;;;;;7.40;3.67;;;22.60;99.90;;;;;;4995065;28;20185;-71
2023/12/26 10:55:37;;;;;;;6.20;3.70;;;22.60;99.90;;;;;;4976540;28;20640;-72
2023/12/26 10:58:05;;;;;;;10.47;4.30;;;22.60;99.90;;;;;;4995186;28;20608;-71
2023/12/26 11:00:33;;;;;;;8.47;3.93;;;22.60;99.90;;;;;;4977680;28;20329;-71
2023/12/26 11:08:33;;;;;;;6.33;3.67;;;22.40;99.90;;;;;;4995502;28;20232;-70
2023/12/26 11:13:48;;;;;;;9.00;4.17;;;22.40;99.90;;;;;;4995979;28;20217;-70
2023/12/26 11:16:16;;;;;;;6.43;3.97;;;22.50;99.90;;;;;;4981303;28;20174;-71
2023/12/26 11:18:45;;;;;;;9.77;3.77;;;22.40;99.90;;;;;;4996359;28;20174;-70
2023/12/26 11:24:01;;;;;;;10.13;4.17;;;22.60;99.90;;;;;;4978178;28;20614;-70
2023/12/26 11:26:30;;;;;;;9.60;4.50;;;22.60;99.90;;;;;;4994961;28;20595;-72
2023/12/26 11:34:34;;;;;;;8.93;4.17;;;22.60;99.90;;;;;;4994964;28;20196;-71
2023/12/26 11:37:02;;;;;;;9.87;4.00;;;22.70;99.90;;;;;;4994584;28;20190;-71
2023/12/26 11:39:30;;;;;;;5.17;3.00;;;22.70;99.90;;;;;;4994343;28;20280;-71
2023/12/26 11:41:58;;;;;;;6.87;3.40;;;22.70;99.90;;;;;;4994203;28;20185;-71
2023/12/26 11:52:42;;;;;;;6.40;2.73;;;22.60;99.90;;;;;;4994072;28;20659;-71
2023/12/26 12:06:35;;;;;;;6.57;3.43;;;22.50;99.90;;;;;;4991408;28;20229;-71
2023/12/26 12:09:06;;;;;;;7.37;3.43;;;22.50;99.90;;;;;;4993621;28;20226;-72
2023/12/26 12:11:34;;;;;;;11.43;3.90;;;22.40;99.90;;;;;;4976348;28;20644;-72
2023/12/26 12:14:02;;;;;;;15.20;4.20;;;22.40;99.90;;;;;;4993929;28;20190;-71
2023/12/26 12:16:30;;;;;;;8.87;3.60;;;22.30;99.90;;;;;;4994054;28;20446;-72
2023/12/26 12:21:46;;;;;;;9.13;3.73;;;22.20;99.90;;;;;;4993996;28;20201;-72
2023/12/26 12:24:20;;;;;;;7.20;3.97;;;22.20;99.90;;;;;;4993650;28;20362;-71
2023/12/26 12:30:06;;;;;;;12.07;4.00;;;22.10;99.90;;;;;;4993634;28;20216;-69
2023/12/26 12:38:08;;;;;;;10.27;3.20;;;21.90;99.90;;;;;;4990458;28;20281;-72
2023/12/26 12:40:35;;;;;;;15.67;3.80;;;21.90;99.90;;;;;;4993648;28;20182;-71
2023/12/26 12:43:03;;;;;;;7.10;3.10;;;21.90;99.90;;;;;;4993596;28;20186;-70
2023/12/26 12:53:48;;;;;;;5.90;3.17;;;21.90;99.90;;;;;;4993292;28;20214;-71
2023/12/26 12:56:16;;;;;;;11.20;3.33;;;21.90;99.90;;;;;;4976128;28;20289;-71
2023/12/26 12:58:44;;;;;;;8.57;3.93;;;21.90;99.90;;;;;;4993049;28;20194;-71
2023/12/26 13:01:12;;;;;;;12.50;3.30;;;21.90;99.90;;;;;;4992945;28;20273;-70
2023/12/26 13:03:39;;;;;;;7.20;3.13;;;22.00;99.90;;;;;;4992156;28;20216;-70
2023/12/26 13:06:07;;;;;;;8.17;3.00;;;22.00;99.90;;;;;;4993100;28;20213;-70
2023/12/26 13:08:35;;;;;;;10.70;3.80;;;21.90;99.90;;;;;;4993266;28;20222;-72
2023/12/26 13:11:03;;;;;;;7.80;3.10;;;21.80;99.90;;;;;;4993301;28;20647;-72
2023/12/26 13:13:30;;;;;;;9.13;3.20;;;21.80;99.90;;;;;;4993565;28;20239;-72
2023/12/26 13:18:44;;;;;;;9.20;3.27;;;21.70;99.90;;;;;;4992744;28;20221;-71
2023/12/26 13:21:16;;;;;;;9.40;3.70;;;21.60;99.90;;;;;;4996972;28;20182;-72
2023/12/26 13:23:47;;;;;;;8.80;3.30;;;21.60;99.90;;;;;;4996471;28;20539;-73
2023/12/26 13:29:07;;;;;;;12.63;3.30;;;21.60;99.90;;;;;;4993954;28;20280;-72
2023/12/26 13:39:59;;;;;;;12.60;3.90;;;21.50;99.90;;;;;;4996567;28;20194;-71
2023/12/26 13:42:30;;;;;;;15.20;4.20;;;21.50;99.90;;;;;;4996855;28;20171;-72
2023/12/26 13:44:58;;;;;;;13.03;4.50;;;21.50;99.90;;;;;;4996194;28;20186;-71
2023/12/26 13:50:11;;;;;;;8.97;3.70;;;21.40;99.90;;;;;;4996880;28;20240;-71
2023/12/26 13:52:39;;;;;;;8.70;3.53;;;21.40;99.90;;;;;;4996191;28;20244;-71
2023/12/26 13:55:06;;;;;;;5.93;3.60;;;21.40;99.90;;;;;;4996364;28;20178;-71
2023/12/26 13:57:34;;;;;;;8.23;3.83;;;21.30;99.90;;;;;;4996150;28;20256;-72
2023/12/26 14:00:08;;;;;;;7.10;3.40;;;21.30;99.90;;;;;;4996586;28;20185;-72
2023/12/26 14:02:35;;;;;;;6.77;3.37;;;21.10;99.90;;;;;;4996618;28;20175;-71
2023/12/26 14:05:03;;;;;;;8.37;3.60;;;21.10;99.90;;;;;;4979027;28;20182;-71